Data for 12/01/2012

Time Sea-Level Adjusted Pressure Absolute Pressure Temperature Relative Humidity Dew Point   
(mb) (inHg) (mb) (inHg) (C) (F) (%) (C) (F)
00:05 1009 29.8 839 24.78 5.2 41.4 73 0.7 33.3
00:10 1010 29.83 839 24.78 5.2 41.4 72 0.6 33.1
00:15 1009 29.8 839 24.78 5.2 41.4 73 0.8 33.5
00:20 1009 29.8 839 24.78 5.2 41.3 73 0.7 33.2
00:25 1010 29.83 839 24.78 5 41 73 0.6 33
00:30 1010 29.83 839 24.78 4.9 40.9 73 0.6 33
00:35 1010 29.83 839 24.78 4.9 40.8 74 0.7 33.2
00:40 1010 29.83 839 24.78 4.5 40.2 76 0.6 33.1
00:45 1010 29.83 839 24.78 4.3 39.8 76 0.4 32.8
00:50 1010 29.83 839 24.78 4.1 39.5 78 0.6 33.1
00:55 1010 29.83 839 24.78 3.8 38.9 80 0.6 33.1
01:00 1010 29.83 839 24.78 3.7 38.7 79 0.4 32.7
01:05 1010 29.83 839 24.78 3.8 38.9 79 0.6 33
01:10 1010 29.83 839 24.78 3.7 38.6 80 0.6 33
01:15 1009 29.8 839 24.78 3.5 38.3 81 0.5 32.9
01:20 1010 29.83 839 24.78 3.3 38 81 0.4 32.8
01:25 1010 29.83 839 24.78 3.5 38.2 80 0.4 32.7
01:30 1010 29.83 839 24.78 3.6 38.5 79 0.3 32.6
01:35 1010 29.83 839 24.78 3.8 38.9 77 0.2 32.4
01:40 1010 29.83 839 24.78 4.1 39.4 77 0.4 32.7
01:45 1010 29.83 839 24.78 4.2 39.6 77 0.5 32.8
01:50 1010 29.83 839 24.78 4.2 39.6 77 0.5 32.9
01:55 1010 29.83 839 24.78 4.1 39.4 79 0.7 33.3
02:00 1010 29.83 839 24.78 3.9 39 79 0.6 33.1
02:05 1010 29.83 839 24.78 3.7 38.7 81 0.7 33.3
02:10 1010 29.83 839 24.78 3.7 38.6 81 0.8 33.4
02:15 1010 29.83 839 24.78 3.7 38.7 81 0.8 33.4
02:20 1010 29.83 840 24.81 3.6 38.5 82 0.8 33.5
02:25 1010 29.83 839 24.78 3.6 38.6 82 0.9 33.6
02:30 1010 29.83 839 24.78 3.6 38.6 82 0.9 33.6
02:35 1010 29.83 839 24.78 3.7 38.7 82 0.8 33.5
02:40 1010 29.83 839 24.78 3.7 38.7 82 1 33.7
02:45 1010 29.83 839 24.78 3.4 38.2 84 0.9 33.7
02:50 1010 29.83 839 24.78 3.4 38.2 84 1 33.7
02:55 1010 29.83 840 24.81 3.5 38.4 84 1 33.8
03:00 1010 29.83 839 24.78 3.7 38.7 83 1.1 34
03:05 1010 29.83 839 24.78 3.9 39 83 1.2 34.2
03:10 1010 29.83 839 24.78 4 39.1 82 1.2 34.1
03:15 1010 29.83 839 24.78 3.9 39.1 82 1.2 34.1
03:20 1010 29.83 840 24.81 3.9 39.1 82 1.2 34.1
03:25 1010 29.83 840 24.81 4 39.2 82 1.2 34.2
03:30 1010 29.83 839 24.78 4.2 39.5 82 1.3 34.4
03:35 1010 29.83 839 24.78 4.2 39.6 82 1.4 34.5
03:40 1010 29.83 839 24.78 4.2 39.6 81 1.3 34.3
03:45 1010 29.83 839 24.78 4.2 39.6 81 1.3 34.3
03:50 1010 29.83 839 24.78 4.3 39.7 81 1.2 34.2
03:55 1010 29.83 839 24.78 4.4 39.9 80 1.3 34.3
04:00 1010 29.83 840 24.81 4.3 39.8 81 1.4 34.5
04:05 1010 29.83 840 24.81 4.1 39.4 82 1.3 34.4
04:10 1011 29.85 840 24.81 3.7 38.7 84 1.3 34.4
04:15 1011 29.85 840 24.81 3.4 38.2 85 1.2 34.1
04:20 1011 29.85 840 24.81 3.3 38 85 1.1 33.9
04:25 1011 29.85 840 24.81 3.3 38 86 1.1 34
04:30 1011 29.85 840 24.81 3.3 37.9 86 1.1 34
04:35 1010 29.83 840 24.81 3.5 38.3 85 1.2 34.1
04:40 1011 29.85 840 24.81 3.2 37.8 86 1.1 33.9
04:45 1011 29.85 840 24.81 3 37.4 86 0.9 33.6
04:50 1010 29.83 840 24.81 2.9 37.3 85 0.7 33.3
04:55 1010 29.83 840 24.81 3 37.4 85 0.7 33.2
05:00 1010 29.83 840 24.81 3.2 37.7 82 0.4 32.7
05:05 1010 29.83 840 24.81 3.1 37.5 84 0.6 33
05:10 1010 29.83 840 24.81 2.7 36.9 84 0.3 32.6
05:15 1010 29.83 840 24.81 2.7 36.9 84 0.2 32.4
05:20 1010 29.83 840 24.81 2.6 36.8 85 0.3 32.6
05:25 1011 29.85 840 24.81 2.6 36.7 84 0.2 32.3
05:30 1011 29.85 840 24.81 2.5 36.4 84 0.1 32.2
05:35 1011 29.85 840 24.81 2.2 35.9 86 0 32
05:40 1011 29.85 840 24.81 2.1 35.8 85 -0.2 31.7
05:45 1011 29.85 840 24.81 2.1 35.7 85 -0.2 31.7
05:50 1011 29.85 840 24.81 2.1 35.8 84 -0.3 31.5
05:55 1011 29.85 840 24.81 2.6 36.6 83 -0.1 31.9
06:00 1011 29.85 840 24.81 2.5 36.5 83 -0.1 31.8
06:05 1011 29.85 840 24.81 2.4 36.2 85 0.1 32.2
06:10 1011 29.85 840 24.81 2.6 36.7 84 0.1 32.2
06:15 1011 29.85 840 24.81 2.7 36.9 84 0.3 32.5
06:20 1011 29.85 840 24.81 2.8 37 84 0.4 32.7
06:25 1011 29.85 840 24.81 2.9 37.2 84 0.4 32.7
06:30 1011 29.85 840 24.81 3 37.4 83 0.4 32.7
06:35 1011 29.85 840 24.81 3.1 37.5 82 0.3 32.5
06:40 1011 29.85 840 24.81 3.1 37.5 83 0.4 32.7
06:45 1011 29.85 840 24.81 3 37.5 83 0.4 32.8
06:50 1011 29.85 840 24.81 3 37.3 83 0.3 32.5
06:55 1011 29.85 840 24.81 2.8 37.1 84 0.4 32.7
07:00 1011 29.85 840 24.81 2.5 36.5 85 0.3 32.5
07:05 1011 29.85 840 24.81 2.3 36.2 86 0.2 32.4
07:10 1011 29.85 840 24.81 2.2 35.9 87 0.2 32.4
07:15 1011 29.85 840 24.81 2.2 35.9 86 0.1 32.1
07:20 1011 29.85 840 24.81 2 35.6 86 -0.1 31.8
07:25 1011 29.85 840 24.81 2 35.6 86 -0.1 31.8
07:30 1011 29.85 840 24.81 1.8 35.2 88 0 32
07:35 1011 29.85 840 24.81 2.1 35.7 87 0.1 32.2
07:40 1011 29.85 840 24.81 2.2 35.9 86 0.1 32.2
07:45 1011 29.85 840 24.81 2.5 36.4 79 -0.8 30.5
07:50 1011 29.85 840 24.81 4 39.1 66 -1.8 28.7
07:55 1011 29.85 840 24.81 4.9 40.8 58 -2.7 27.2
08:00 1011 29.85 840 24.81 5.2 41.3 57 -2.7 27.2
08:05 1011 29.85 840 24.81 5.1 41.3 68 -0.2 31.6
08:10 1011 29.85 840 24.81 4.2 39.6 68 -1.1 30
08:15 1011 29.85 840 24.81 3.9 38.9 76 -0.1 31.9
08:20 1011 29.85 840 24.81 3.3 38 74 -0.9 30.3
08:25 1011 29.85 841 24.83 3.4 38.2 76 -0.5 31.2
08:30 1011 29.85 841 24.83 3.4 38.1 68 -1.9 28.6
08:35 1011 29.85 841 24.83 3.9 39 67 -1.6 29.2
08:40 1011 29.85 840 24.81 4 39.3 64 -2.2 28
08:45 1011 29.85 840 24.81 4.3 39.8 63 -2 28.4
08:50 1011 29.85 840 24.81 4.4 39.9 65 -1.7 28.9
08:55 1011 29.85 840 24.81 4.6 40.3 65 -1.4 29.5
09:00 1011 29.85 840 24.81 4.4 39.8 61 -2.5 27.4
09:05 1011 29.85 840 24.81 4.3 39.7 65 -1.8 28.7
09:10 1011 29.85 840 24.81 4.6 40.4 54 -3.8 25.1
09:15 1011 29.85 840 24.81 5.9 42.6 48 -4.3 24.3
09:20 1011 29.85 840 24.81 6.1 43 47 -4.5 24
09:25 1011 29.85 840 24.81 6.4 43.5 45 -4.8 23.3
09:30 1011 29.85 840 24.81 6.4 43.5 45 -4.6 23.7
09:35 1011 29.85 840 24.81 6.4 43.5 46 -4.2 24.4
09:40 1011 29.85 841 24.83 6.3 43.3 49 -3.5 25.6
09:45 1011 29.85 841 24.83 6 42.8 49 -4 24.8
09:50 1011 29.85 841 24.83 5.9 42.6 51 -3.6 25.5
09:55 1011 29.85 841 24.83 6.1 43 49 -3.6 25.4
10:00 1011 29.85 841 24.83 6.4 43.5 47 -4 24.8
10:05 1011 29.85 841 24.83 6.7 44.1 46 -4 24.8
10:10 1011 29.85 841 24.83 7 44.6 44 -4.5 23.9
10:15 1011 29.85 841 24.83 7.1 44.8 44 -4.2 24.4
10:20 1011 29.85 840 24.81 7.2 45 45 -4.1 24.7
10:25 1011 29.85 840 24.81 7.3 45.1 42 -4.7 23.6
10:30 1011 29.85 840 24.81 7.8 46 42 -4.2 24.4
10:35 1011 29.85 840 24.81 8.1 46.6 41 -4.2 24.4
10:40 1011 29.85 840 24.81 8.5 47.3 40 -4.2 24.5
10:45 1011 29.85 840 24.81 8.9 47.9 39 -4.2 24.5
10:50 1011 29.85 840 24.81 9.2 48.6 43 -2.8 27
10:55 1011 29.85 840 24.81 8.3 47 46 -2.7 27.2
11:00 1011 29.85 841 24.83 8.1 46.6 45 -3.1 26.4
11:05 1011 29.85 841 24.83 8.5 47.3 43 -3.4 25.9
11:10 1011 29.85 840 24.81 8.6 47.6 41 -3.9 25.1
11:15 1011 29.85 841 24.83 9.3 48.7 40 -3.5 25.7
11:20 1011 29.85 840 24.81 9.8 49.6 39 -3.3 26
11:25 1011 29.85 841 24.83 10 50 38 -3.7 25.3
11:30 1011 29.85 841 24.83 9.8 49.6 39 -3.6 25.5
11:35 1011 29.85 841 24.83 9.3 48.8 40 -3.7 25.4
11:40 1011 29.85 841 24.83 9.2 48.6 36 -5.1 22.9
11:45 1011 29.85 841 24.83 9.3 48.8 35 -5.2 22.6
11:50 1011 29.85 841 24.83 9.4 49 35 -5.3 22.5
11:55 1011 29.85 841 24.83 9.4 48.9 36 -5 23
12:00 1011 29.85 841 24.83 9.8 49.6 36 -4.7 23.5
12:05 1011 29.85 840 24.81 10.3 50.6 33 -5.2 22.7
12:10 1011 29.85 840 24.81 10.5 50.8 34 -4.8 23.3
12:15 1011 29.85 840 24.81 10.2 50.3 35 -4.6 23.7
12:20 1011 29.85 840 24.81 9.8 49.7 37 -4.3 24.3
12:25 1011 29.85 840 24.81 9.7 49.4 37 -4.4 24.1
12:30 1011 29.85 840 24.81 9.6 49.3 37 -4.2 24.5
12:35 1011 29.85 840 24.81 9.5 49.1 37 -4.3 24.2
12:40 1011 29.85 840 24.81 9.5 49.1 38 -4.1 24.7
12:45 1011 29.85 840 24.81 9.5 49.1 37 -4.3 24.3
12:50 1011 29.85 840 24.81 9.5 49.2 38 -4.2 24.5
12:55 1011 29.85 840 24.81 9.6 49.3 38 -3.9 25
13:00 1011 29.85 840 24.81 9.9 49.8 38 -3.7 25.4
13:05 1010 29.83 840 24.81 9.9 49.8 39 -3.5 25.8
13:10 1011 29.85 840 24.81 9.7 49.5 39 -3.7 25.3
13:15 1011 29.85 840 24.81 9.7 49.4 39 -3.4 25.9
13:20 1011 29.85 840 24.81 9.8 49.6 39 -3.5 25.8
13:25 1010 29.83 840 24.81 9.9 49.8 39 -3.2 26.2
13:30 1010 29.83 840 24.81 10 49.9 38 -3.8 25.2
13:35 1010 29.83 840 24.81 10.2 50.3 38 -3.4 25.8
13:40 1010 29.83 840 24.81 10.2 50.4 38 -3.3 26.1
13:45 1010 29.83 840 24.81 10.1 50.1 38 -3.6 25.6
13:50 1010 29.83 840 24.81 9.9 49.8 36 -4.3 24.3
13:55 1010 29.83 839 24.78 10.2 50.3 32 -5.6 22
14:00 1010 29.83 839 24.78 10.5 51 30 -6.3 20.6
14:05 1010 29.83 839 24.78 10.5 51 30 -6.1 21
14:10 1010 29.83 839 24.78 10.5 51 31 -6 21.1
14:15 1010 29.83 839 24.78 10.6 51.1 31 -5.6 21.9
14:20 1010 29.83 839 24.78 10.6 51.1 31 -5.9 21.4
14:25 1010 29.83 839 24.78 10.6 51.2 32 -5.5 22.2
14:30 1010 29.83 839 24.78 10.7 51.3 31 -5.9 21.4
14:35 1010 29.83 839 24.78 10.8 51.5 31 -5.6 22
14:40 1010 29.83 839 24.78 10.9 51.6 33 -4.8 23.4
14:45 1010 29.83 839 24.78 10.7 51.2 32 -5.5 22.1
14:50 1010 29.83 839 24.78 10.8 51.4 33 -4.7 23.6
14:55 1010 29.83 839 24.78 10.8 51.5 35 -4.1 24.5
15:00 1010 29.83 839 24.78 10.8 51.4 33 -5 23
15:05 1010 29.83 839 24.78 10.9 51.7 33 -4.8 23.4
15:10 1010 29.83 839 24.78 10.9 51.5 33 -4.6 23.8
15:15 1010 29.83 839 24.78 10.8 51.5 32 -5.2 22.6
15:20 1010 29.83 839 24.78 11 51.8 31 -5.2 22.6
15:25 1010 29.83 839 24.78 11 51.8 33 -4.7 23.5
15:30 1010 29.83 839 24.78 11 51.9 32 -5 23.1
15:35 1010 29.83 839 24.78 11 51.8 32 -4.9 23.3
15:40 1010 29.83 839 24.78 11.1 52.1 33 -4.6 23.7
15:45 1010 29.83 839 24.78 11.3 52.3 33 -4.5 23.9
15:50 1010 29.83 839 24.78 11.5 52.8 31 -5 23
15:55 1010 29.83 839 24.78 11.6 52.9 31 -5 23
16:00 1010 29.83 839 24.78 11.6 52.8 31 -5 22.9
16:05 1010 29.83 839 24.78 11.3 52.4 31 -5 22.9
16:10 1010 29.83 839 24.78 11.2 52.1 32 -4.8 23.4
16:15 1010 29.83 839 24.78 10.8 51.4 34 -4.4 24
16:20 1009 29.8 839 24.78 10.5 50.8 36 -4 24.8
16:25 1010 29.83 839 24.78 10.3 50.5 37 -3.8 25.2
16:30 1010 29.83 839 24.78 10.2 50.4 36 -4.1 24.7
16:35 1010 29.83 839 24.78 10.1 50.2 37 -3.8 25.1
16:40 1010 29.83 839 24.78 10 49.9 38 -3.6 25.5
16:45 1010 29.83 839 24.78 9.8 49.6 39 -3.4 25.9
16:50 1010 29.83 839 24.78 9.7 49.5 39 -3.6 25.6
16:55 1010 29.83 839 24.78 9.8 49.6 40 -3 26.6
17:00 1010 29.83 839 24.78 9.6 49.3 40 -3.4 25.8
17:05 1010 29.83 839 24.78 9.6 49.3 39 -3.5 25.7
17:10 1010 29.83 839 24.78 9.6 49.3 39 -3.5 25.7
17:15 1010 29.83 839 24.78 9.5 49.2 41 -3.1 26.5
17:20 1010 29.83 839 24.78 9.5 49 41 -3.2 26.3
17:25 1010 29.83 839 24.78 9.3 48.8 41 -3.1 26.5
17:30 1010 29.83 839 24.78 9.3 48.7 42 -2.9 26.8
17:35 1010 29.83 839 24.78 9.1 48.4 43 -2.8 27
17:40 1010 29.83 839 24.78 9 48.2 43 -2.8 26.9
17:45 1010 29.83 839 24.78 8.9 48 44 -2.8 27
17:50 1010 29.83 839 24.78 8.9 47.9 44 -2.6 27.3
17:55 1010 29.83 839 24.78 8.8 47.8 44 -2.8 27
18:00 1010 29.83 839 24.78 8.7 47.6 44 -2.9 26.8
18:05 1010 29.83 839 24.78 8.6 47.4 46 -2.5 27.5
18:10 1010 29.83 839 24.78 8.5 47.3 47 -2.2 28
18:15 1010 29.83 839 24.78 8.4 47.1 47 -2.2 28
18:20 1010 29.83 840 24.81 8.4 47.1 47 -2.3 27.9
18:25 1010 29.83 840 24.81 8.4 47.1 47 -2.2 28
18:30 1010 29.83 840 24.81 8.3 47 47 -2.3 27.8
18:35 1010 29.83 840 24.81 8.4 47 47 -2.4 27.7
18:40 1010 29.83 840 24.81 8.5 47.3 47 -2.2 28
18:45 1010 29.83 840 24.81 8.3 47 49 -1.8 28.7
18:50 1010 29.83 840 24.81 8.1 46.5 50 -1.7 29
18:55 1010 29.83 840 24.81 7.9 46.3 52 -1.3 29.7
19:00 1011 29.85 840 24.81 7.9 46.2 53 -1.1 29.9
19:05 1011 29.85 840 24.81 7.9 46.2 54 -0.9 30.3
19:10 1011 29.85 840 24.81 7.8 46 56 -0.4 31.2
19:15 1011 29.85 840 24.81 7.6 45.6 56 -0.7 30.7
19:20 1011 29.85 840 24.81 7.5 45.4 57 -0.5 31.1
19:25 1011 29.85 840 24.81 7.4 45.3 57 -0.6 31
19:30 1011 29.85 840 24.81 7.3 45.2 57 -0.7 30.8
19:35 1011 29.85 840 24.81 7.4 45.3 55 -1.1 30.1
19:40 1011 29.85 840 24.81 7.6 45.7 55 -0.9 30.5
19:45 1011 29.85 840 24.81 7.5 45.5 53 -1.3 29.6
19:50 1011 29.85 840 24.81 7.4 45.3 57 -0.7 30.8
19:55 1011 29.85 840 24.81 7.3 45.1 57 -0.7 30.7
20:00 1011 29.85 840 24.81 7.2 45 57 -0.7 30.7
20:05 1011 29.85 840 24.81 7 44.7 57 -0.8 30.6
20:10 1011 29.85 840 24.81 6.8 44.3 58 -0.8 30.5
20:15 1011 29.85 840 24.81 6.8 44.3 57 -1 30.2
20:20 1011 29.85 840 24.81 6.9 44.4 57 -1 30.2
20:25 1011 29.85 840 24.81 6.9 44.5 56 -1.1 29.9
20:30 1011 29.85 840 24.81 7.1 44.7 56 -1.1 30
20:35 1011 29.85 840 24.81 7.1 44.9 55 -1.2 29.9
20:40 1011 29.85 840 24.81 7.2 44.9 54 -1.4 29.4
20:45 1011 29.85 840 24.81 7.3 45.1 54 -1.3 29.7
20:50 1011 29.85 840 24.81 7.3 45.2 53 -1.5 29.3
20:55 1011 29.85 840 24.81 7.4 45.3 53 -1.7 29
21:00 1011 29.85 840 24.81 7.5 45.5 51 -2 28.3
21:05 1011 29.85 840 24.81 7.8 46 49 -2.1 28.2
21:10 1011 29.85 840 24.81 8 46.3 49 -2.2 28.1
21:15 1011 29.85 840 24.81 7.8 46 52 -1.3 29.6
21:20 1011 29.85 840 24.81 7.5 45.5 48 -2.7 27.2
21:25 1011 29.85 840 24.81 7.6 45.6 50 -2.2 28
21:30 1011 29.85 840 24.81 7.3 45.2 50 -2.3 27.8
21:35 1011 29.85 840 24.81 7.5 45.4 48 -2.8 26.9
21:40 1011 29.85 840 24.81 7.6 45.7 47 -3 26.6
21:45 1010 29.83 840 24.81 7.9 46.2 46 -3.1 26.4
21:50 1010 29.83 840 24.81 8.2 46.7 44 -3.2 26.3
21:55 1010 29.83 839 24.78 8.4 47.1 44 -3.3 26.1
22:00 1010 29.83 839 24.78 8.5 47.2 44 -3.1 26.5
22:05 1010 29.83 839 24.78 8.3 46.9 45 -3 26.6
22:10 1010 29.83 839 24.78 8.2 46.8 44 -3.1 26.4
22:15 1010 29.83 839 24.78 8.3 46.9 45 -3 26.5
22:20 1010 29.83 839 24.78 8.4 47.1 43 -3.3 26
22:25 1010 29.83 839 24.78 8.6 47.4 44 -3 26.5
22:30 1010 29.83 839 24.78 8.6 47.5 43 -3.3 26
22:35 1010 29.83 839 24.78 8.7 47.6 44 -2.8 27
22:40 1010 29.83 839 24.78 8.5 47.2 43 -3.2 26.2
22:45 1010 29.83 839 24.78 8.8 47.8 41 -3.7 25.4
22:50 1010 29.83 839 24.78 8.8 47.9 42 -3.3 26
22:55 1010 29.83 839 24.78 8.9 47.9 41 -3.7 25.4
23:00 1010 29.83 839 24.78 9.1 48.4 40 -3.9 25
23:05 1010 29.83 839 24.78 9.2 48.6 39 -4.1 24.6
23:10 1010 29.83 839 24.78 9.4 48.9 38 -4.3 24.2
23:15 1010 29.83 839 24.78 9.5 49.2 36 -4.7 23.5
23:20 1010 29.83 839 24.78 9.5 49.1 36 -4.6 23.7
23:25 1009 29.8 839 24.78 9.5 49 37 -4.4 24.1
23:30 1009 29.8 839 24.78 9.4 48.9 35 -5.1 22.8
23:35 1009 29.8 839 24.78 9.5 49.1 36 -4.9 23.2
23:40 1009 29.8 838 24.75 9.6 49.3 35 -5.2 22.6
23:45 1009 29.8 839 24.78 9.6 49.3 36 -4.8 23.4
23:50 1009 29.8 839 24.78 9.3 48.8 37 -4.7 23.6
23:55 1009 29.8 839 24.78 9.3 48.7 37 -4.7 23.6
24:00 1009 29.8 839 24.78 9.2 48.5 37 -4.8 23.4